Edwards Creek Valley, Nevada Weather observations

Data are for observation ending at time listed.
 Day   Time    Ave.   Ave.  Ave.  Vector   Max.   Stn.    Total    Solar   Ave.  
  of    of     Air    Rel.  Wind   Wind    Wind   Baro.  Precip.   Rad.    Soil  
Year   Day     Temp.  Hum.  Speed  Dir.    Gust   Pres.                    Temp. 
2015   (PST)    F      %     mph   deg.    mph     mb.     in.     W/m2     F   
------------------------------------------------------------------------------
 114    0:00   43.6    71    6.7   176      9.9    839     0.00       0     53.8
 114    0:10   44.1    70    7.7   166     10.9    839     0.00       0     53.7
 114    0:20   46.7    63   10.1   171     18.3    839     0.00       0     53.6
 114    0:30   48.2    59   10.9   191     18.3    839     0.00       0     53.5
 114    0:40   47.6    61    5.4   186     11.4    839     0.00       0     53.5
 114    0:50   45.5    66    2.9   150      4.5    838     0.00       0     53.5
 114    1:00   44.6    68    2.0   187      5.5    838     0.00       0     53.5
 114    1:10   45.0    69    4.5   235      8.5    839     0.00       0     53.4
 114    1:20   46.5    65    7.0   225     12.1    840     0.00       0     53.4
 114    1:30   47.3    64    8.6   217     15.9    839     0.00       0     53.3
 114    1:40   47.2    67   10.7   217     16.9    839     0.00       0     53.3
 114    1:50   46.2    73   13.1   213     23.4    839     0.00       0     53.3
 114    2:00   44.5    84   14.2   216     21.9    839     0.00       0     53.3
 114    2:10   44.4    82   15.8   195     23.3    839     0.02       0     53.3
 114    2:20   44.2    82   13.3   170     19.6    839     0.01       0     53.2
 114    2:30   44.2    82   10.2   192     16.0    840     0.00       0     53.1
 114    2:40   43.6    83    9.4   182     13.0    840     0.00       0     53.0
 114    2:50   43.0    85    7.0   170     10.2    840     0.00       0     52.8
 114    3:00   42.8    86    7.8   171     10.9    840     0.00       0     52.7
 114    3:10   42.7    87    9.2   162     12.8    840     0.00       0     52.6
 114    3:20   42.8    87    8.4   166     14.4    840     0.01       0     52.6
 114    3:30   42.6    86    7.9   170     11.2    840     0.00       0     52.5
 114    3:40   42.4    86    5.7   166      9.6    840     0.01       0     52.4
 114    3:50   42.4    86    6.9   151     11.0    840     0.00       0     52.3
 114    4:00   42.6    85    4.2   155      8.0    840     0.00       0     52.2
 114    4:10   42.6    86    3.6   354      8.4    839     0.00       0     52.1
 114    4:20   43.6    82    4.2   227      8.0    839     0.00       0     52.1
 114    4:30   44.4    78    4.0   222     10.4    839     0.00       0     52.0
 114    4:40   44.4    78    2.0   266      5.2    840     0.00       0     51.9
 114    4:50   44.5    77    2.8   276      7.7    840     0.00       0     51.8
 114    5:00   44.0    80    1.9   253      4.5    840     0.00       1     51.7
 114    5:10   44.0    79    1.5   263      4.5    840     0.00       1     51.7
 114    5:20   44.0    80    2.1   299      5.1    840     0.00       3     51.6
 114    5:30   44.0    79    1.8   268      7.4    839     0.00       8     51.6
 114    5:40   44.2    79    1.0   285      2.6    840     0.00      13     51.6
 114    5:50   43.7    82    2.1   292      3.8    840     0.00      16     51.5
 114    6:00   43.5    84    1.7   198      4.4    840     0.00      12     51.5
 114    6:10   43.5    84    4.4   185     11.0    840     0.00       9     51.5
 114    6:20   43.6    84    6.6   201     10.5    840     0.00      10     51.5
 114    6:30   43.8    82    6.6   198     11.9    840     0.00      16     51.5
 114    6:40   44.1    81    7.6   198     12.5    840     0.00      19     51.4
 114    6:50   44.0    81    7.0   198     10.7    840     0.00      27     51.4
 114    7:00   44.1    79    7.4   197     11.9    840     0.00      33     51.3
 114    7:10   44.1    79    6.1   195      9.6    840     0.00      58     51.3
 114    7:20   44.4    78    6.4   191      9.8    840     0.00     111     51.2
 114    7:30   45.0    77    6.9   193     11.2    840     0.00     112     51.3
 114    7:40   45.3    76    7.8   194     13.0    840     0.00     128     51.3
 114    7:50   45.6    73    7.6   204     12.9    840     0.00     102     51.4
 114    8:00   45.8    73    6.6   212     10.6    841     0.00     110     51.5
 114    8:10   45.8    74    6.6   217     10.6    840     0.00     116     51.5
 114    8:20   45.9    75    6.9   225     10.9    840     0.00     144     51.6
 114    8:30   46.5    74    7.9   228     12.1    840     0.00     323     51.7
 114    8:40   47.8    71   10.1   230     14.6    840     0.00     384     51.8
 114    8:50   48.4    69    9.2   227     14.8    840     0.00     330     52.0
 114    9:00   48.7    68   10.6   210     17.5    840     0.00     355     52.3
 114    9:10   48.9    69   10.4   207     15.1    840     0.00     512     52.6
 114    9:20   50.4    68   11.0   210     17.5    840     0.00     825     52.9
 114    9:30   51.2    65   11.6   220     18.2    840     0.00     667     53.4
 114    9:40   48.1    73   10.6   225     18.9    840     0.00     335     54.0
 114    9:50   48.5    70    9.8   220     14.2    840     0.00     500     54.5
 114   10:00   48.9    67    8.8   231     14.0    841     0.00     229     54.8
 114   10:10   47.2    71   10.4   262     16.8    841     0.00     137     55.1
 114   10:20   46.2    71    7.4   221     11.3    841     0.00     243     55.1
 114   10:30   46.7    69    7.3   206     11.6    841     0.00     221     55.0
 114   10:40   47.5    68    8.0   200     12.9    841     0.00     155     55.0
 114   10:50   48.5    62    9.0   222     14.8    841     0.00     286     54.9
 114   11:00   49.1    61    9.3   210     14.8    841     0.00     388     54.9
 114   11:10   49.2    64    6.8   228     13.0    841     0.00     136     54.9
 114   11:20   48.2    62    9.6   274     12.6    841     0.00      85     55.0
 114   11:30   47.6    63    7.8   276     11.1    841     0.00     122     55.0
 114   11:40   48.5    63    6.5   237     10.8    841     0.00     280     54.9
 114   11:50   49.0    66    9.5   195     14.2    841     0.00     360     54.8
 114   12:00   49.2    62    7.9   196     13.3    841     0.00     300     54.9
 114   12:10   49.4    62    7.4   202     12.9    841     0.00     151     55.0
 114   12:20   49.1    60    8.9   222     19.3    841     0.00     213     55.1
 114   12:30   50.0    56    7.7   224     13.3    841     0.00     401     55.1
 114   12:40   50.8    55    7.2   219     14.5    840     0.00     495     55.2
 114   12:50   51.9    51    7.6   232     13.5    840     0.00     506     55.4
 114   13:00   52.4    50    9.2   222     14.7    840     0.00     642     55.8
 114   13:10   53.3    46   11.5   237     18.0    840     0.00     786     56.2
 114   13:20   53.5    44   11.3   237     19.5    840     0.00     591     56.7
 114   13:30   52.8    44   10.1   240     18.8    840     0.00     409     57.3
 114   13:40   52.8    43   10.1   235     15.5    840     0.00     311     57.8
 114   13:50   52.2    41   12.8   267     20.4    840     0.00     217     58.0
 114   14:00   51.6    42   10.7   248     16.4    840     0.00     221     58.0
 114   14:10   51.2    41   12.4   265     21.5    840     0.00     215     58.0
 114   14:20   50.8    42   14.2   259     21.7    840     0.00     248     57.9
 114   14:30   50.3    47   16.6   269     23.0    840     0.00     299     57.8
 114   14:40   49.5    52   10.9   255     17.4    840     0.00     275     57.7
 114   14:50   49.6    50    9.4   252     16.4    840     0.00     191     57.6
 114   15:00   49.8    48    6.9   234     12.1    840     0.00     187     57.5
 114   15:10   49.7    48    4.7   263      8.1    840     0.00     138     57.5
 114   15:20   49.9    47    3.2   288      6.9    840     0.00     113     57.4
 114   15:30   50.1    46    2.6   294      5.0    840     0.00     144     57.3
 114   15:40   51.0    42    7.9   254     15.2    840     0.00     168     57.2
 114   15:50   51.4    41    6.4   245     10.6    840     0.00     161     57.2
 114   16:00   51.5    39    8.7   249     14.3    840     0.00     152     57.1
 114   16:10   51.6    37    7.2   246     20.7    840     0.00     124     57.1
 114   16:20   52.5    35    9.3   219     18.0    840     0.00     175     57.0
 114   16:30   52.6    33    8.4   229     14.0    840     0.00     133     56.9
 114   16:40   53.1    33    9.1   239     16.5    840     0.00     152     56.9
 114   16:50   53.1    33    8.5   250     15.1    840     0.00     235     56.8
 114   17:00   53.9    32    7.7   256     14.0    840     0.00     315     56.8
 114   17:10   53.1    33    7.9   266     14.5    840     0.00     152     56.8
 114   17:20   52.2    34    8.1   256     17.2    840     0.00      66     56.9
 114   17:30   51.8    35    5.8   254      9.1    840     0.00      48     56.8
 114   17:40   51.5    35    6.9   265     10.8    840     0.00      33     56.8
 114   17:50   51.3    36    6.6   247      9.6    840     0.00      19     56.6
 114   18:00   50.8    36    9.4   235     15.0    840     0.00      25     56.5
 114   18:10   50.5    36    9.9   261     16.9    840     0.00      19     56.3
 114   18:20   50.0    38   10.3   273     17.0    841     0.00      11     56.1
 114   18:30   49.6    39    8.1   271     12.0    840     0.00       5     55.9
 114   18:40   49.2    42    4.9   258      7.7    840     0.00       2     55.7
 114   18:50   48.5    44    4.7   253      7.2    840     0.00       0     55.5
 114   19:00   48.1    46    5.9   272      9.5    841     0.00       0     55.3
 114   19:10   48.1    48    9.8   286     14.9    840     0.00       0     55.1
 114   19:20   47.9    48    8.1   268     12.1    841     0.00       0     54.9
 114   19:30   47.9    46    8.8   252     12.8    841     0.00       0     54.7
 114   19:40   47.8    44    9.5   249     12.9    841     0.00       0     54.6
 114   19:50   48.0    42   10.7   242     17.3    841     0.00       0     54.4
 114   20:00   48.0    43   10.3   237     17.4    841     0.00       0     54.2
 114   20:10   47.4    44    9.7   231     16.9    841     0.00       0     54.0
 114   20:20   47.2    45    8.8   235     14.0    842     0.00       0     53.9
 114   20:30   47.2    44    9.0   218     13.8    841     0.00       0     53.7
 114   20:40   46.7    46    6.8   215     11.5    841     0.00       0     53.6
 114   20:50   46.5    45    7.5   231     13.3    841     0.00       0     53.4
 114   21:00   46.3    45    7.3   221     14.2    842     0.00       0     53.3
 114   21:10   46.1    46    7.8   220     12.6    841     0.00       0     53.1
 114   21:20   45.7    48    6.4   220     11.0    841     0.00       0     52.9
 114   21:30   45.2    50    4.8   230      7.6    841     0.00       0     52.8
 114   21:40   44.7    50    5.7   228      8.6    841     0.00       0     52.7
 114   21:50   44.4    52    6.7   220     10.3    841     0.00       0     52.5
 114   22:00   43.9    53    6.0   227      9.1    841     0.00       0     52.4
 114   22:10   43.3    54    5.3   216      8.4    841     0.00       0     52.2
 114   22:20   42.9    55    5.4   215      8.6    841     0.00       0     52.0

Return to Carson Sink graphs page.


Western Regional Climate Center,wrcc@dri.edu